Time;durP1;ratioP1;P1;durP2;ratioP2;P2;SDS_P1;SDS_P2;PMS_P1;PMS_P2;Temp;Humidity;BMP_temperature;BMP_pressure;BME280_temperature;BME280_humidity;BME280_pressure;Samples;Min_cycle;Max_cycle;Signal;HPM_P1;HPM_P2
2023/11/20 00:00:33;;;;;;;10.00;2.63;;;10.90;99.90;;;;;;2085932;28;20032;-83
2023/11/20 00:01:36;;;;;;;11.38;2.75;;;10.90;99.90;;;;;;2078540;28;20095;-79
2023/11/20 00:02:37;;;;;;;9.50;2.53;;;10.90;99.90;;;;;;2078944;28;20348;-84
2023/11/20 00:03:38;;;;;;;12.10;2.88;;;10.90;99.90;;;;;;2084563;28;20099;-80
2023/11/20 00:04:39;;;;;;;11.07;2.72;;;10.90;99.90;;;;;;2082536;28;20026;-81
2023/11/20 00:05:42;;;;;;;12.07;2.95;;;10.90;99.90;;;;;;2084850;28;20029;-83
2023/11/20 00:06:43;;;;;;;9.23;2.55;;;10.80;99.90;;;;;;2095849;28;20096;-83
2023/11/20 00:07:44;;;;;;;12.73;2.92;;;10.80;99.90;;;;;;2091059;28;20021;-82
2023/11/20 00:08:44;;;;;;;14.73;2.80;;;10.80;99.90;;;;;;2096671;28;20037;-83
2023/11/20 00:09:45;;;;;;;11.57;2.60;;;10.80;99.90;;;;;;2098801;28;20037;-85
2023/11/20 00:10:45;;;;;;;10.30;2.35;;;10.70;99.90;;;;;;2094133;28;20383;-83
2023/11/20 00:11:46;;;;;;;10.73;2.72;;;10.70;99.90;;;;;;2089153;28;20030;-84
2023/11/20 00:12:47;;;;;;;13.45;2.70;;;10.70;99.90;;;;;;2091186;28;20040;-82
2023/11/20 00:13:47;;;;;;;10.23;2.50;;;10.70;99.90;;;;;;2087318;28;20028;-84
2023/11/20 00:14:48;;;;;;;11.60;2.33;;;10.70;99.90;;;;;;2085491;28;20101;-84
2023/11/20 00:15:48;;;;;;;9.57;2.60;;;10.70;99.90;;;;;;2081312;28;20085;-85
2023/11/20 00:16:49;;;;;;;13.73;2.90;;;10.70;99.90;;;;;;2078329;28;20099;-84
2023/11/20 00:17:50;;;;;;;7.68;2.35;;;10.70;99.90;;;;;;2081684;28;20112;-84
2023/11/20 00:18:50;;;;;;;11.30;2.50;;;10.60;99.90;;;;;;2078168;28;20037;-84
2023/11/20 00:19:51;;;;;;;10.25;2.65;;;10.70;99.90;;;;;;2088115;28;20025;-83
2023/11/20 00:20:52;;;;;;;13.98;2.78;;;10.60;99.90;;;;;;2091707;28;20043;-82
2023/11/20 00:21:52;;;;;;;10.23;2.58;;;10.60;99.90;;;;;;2092933;28;20040;-82
2023/11/20 00:22:53;;;;;;;12.15;2.40;;;10.60;99.90;;;;;;2088389;28;20479;-84
2023/11/20 00:23:54;;;;;;;9.23;2.30;;;10.60;99.90;;;;;;2092834;28;20443;-84
2023/11/20 00:24:56;;;;;;;16.58;2.80;;;10.60;99.90;;;;;;2091346;28;20158;-83
2023/11/20 00:25:56;;;;;;;9.90;2.45;;;10.60;99.90;;;;;;2087388;28;20032;-84
2023/11/20 00:26:59;;;;;;;9.55;2.70;;;10.60;99.90;;;;;;2097480;28;20041;-82
2023/11/20 00:28:00;;;;;;;9.85;2.40;;;10.50;99.90;;;;;;2097026;28;20458;-86
2023/11/20 00:29:00;;;;;;;11.32;2.58;;;10.50;99.90;;;;;;2088606;28;20059;-81
2023/11/20 00:30:01;;;;;;;13.65;2.60;;;10.50;99.90;;;;;;2089908;28;20144;-82
2023/11/20 00:31:02;;;;;;;11.82;2.75;;;10.50;99.90;;;;;;2090656;28;20043;-81
2023/11/20 00:32:04;;;;;;;12.63;2.67;;;10.50;99.90;;;;;;2089916;28;20031;-82
2023/11/20 00:33:09;;;;;;;7.30;2.60;;;10.40;99.90;;;;;;2079775;28;20040;-83
2023/11/20 00:34:10;;;;;;;9.82;2.55;;;10.40;99.90;;;;;;2082709;28;20079;-83
2023/11/20 00:35:10;;;;;;;11.05;2.50;;;10.40;99.90;;;;;;2078879;28;20416;-84
2023/11/20 00:36:12;;;;;;;9.95;2.70;;;10.40;99.90;;;;;;2078637;28;20095;-81
2023/11/20 00:37:14;;;;;;;12.82;2.85;;;10.30;99.90;;;;;;2079113;28;20030;-81
2023/11/20 00:38:14;;;;;;;10.23;2.63;;;10.30;99.90;;;;;;2072382;28;20176;-84
2023/11/20 00:39:16;;;;;;;11.55;2.50;;;10.30;99.90;;;;;;2066914;28;20416;-82
2023/11/20 00:40:18;;;;;;;10.30;2.65;;;10.30;99.90;;;;;;2074705;28;20042;-81
2023/11/20 00:41:19;;;;;;;12.63;2.80;;;10.30;99.90;;;;;;2089769;28;20141;-83
2023/11/20 00:42:20;;;;;;;11.32;2.90;;;10.20;99.90;;;;;;2090252;28;20033;-82
2023/11/20 00:43:20;;;;;;;12.10;2.55;;;10.20;99.90;;;;;;2095498;28;20064;-84
2023/11/20 00:44:21;;;;;;;14.23;3.55;;;10.20;99.90;;;;;;2084151;28;20078;-82
2023/11/20 00:45:23;;;;;;;12.55;2.85;;;10.20;99.90;;;;;;2083714;28;20498;-82
2023/11/20 00:46:24;;;;;;;12.77;3.10;;;10.20;99.90;;;;;;2086071;28;20025;-83
2023/11/20 00:47:25;;;;;;;14.15;3.13;;;10.20;99.90;;;;;;2075287;28;20120;-83
2023/11/20 00:48:25;;;;;;;14.05;2.70;;;10.20;99.90;;;;;;2087657;28;20029;-81
2023/11/20 00:49:26;;;;;;;10.57;2.92;;;10.20;99.90;;;;;;2091691;28;20041;-85
2023/11/20 00:50:27;;;;;;;12.48;2.72;;;10.20;99.90;;;;;;2088761;28;20079;-80
2023/11/20 00:51:29;;;;;;;10.63;2.92;;;10.20;99.90;;;;;;2084737;28;20052;-77
2023/11/20 00:52:31;;;;;;;13.77;2.88;;;10.10;99.90;;;;;;2085741;28;20071;-85
2023/11/20 00:53:32;;;;;;;12.73;3.00;;;10.20;99.90;;;;;;2082916;28;20880;-82
2023/11/20 00:54:32;;;;;;;14.63;2.90;;;10.10;99.90;;;;;;2089202;28;20032;-85
2023/11/20 00:55:33;;;;;;;12.77;3.03;;;10.10;99.90;;;;;;2087398;28;20052;-86
2023/11/20 00:56:33;;;;;;;10.73;3.20;;;10.10;99.90;;;;;;2087889;28;20282;-82
2023/11/20 00:57:35;;;;;;;13.77;3.35;;;10.10;99.90;;;;;;2083736;28;20040;-85
2023/11/20 00:58:38;;;;;;;12.50;3.10;;;10.10;99.90;;;;;;2078519;28;20049;-84
2023/11/20 00:59:40;;;;;;;11.05;2.85;;;10.10;99.90;;;;;;2083791;28;20507;-83
2023/11/20 01:00:41;;;;;;;14.93;3.17;;;10.10;99.90;;;;;;2086763;28;20017;-83
2023/11/20 01:01:42;;;;;;;13.55;3.10;;;10.10;99.90;;;;;;2078484;28;20025;-82
2023/11/20 01:02:42;;;;;;;11.45;2.65;;;10.10;99.90;;;;;;2081282;28;20380;-82
2023/11/20 01:03:44;;;;;;;12.75;2.83;;;10.10;99.90;;;;;;2079385;28;20018;-84
2023/11/20 01:04:44;;;;;;;12.52;2.85;;;10.10;99.90;;;;;;2085836;28;20442;-83
2023/11/20 01:05:45;;;;;;;11.98;2.80;;;10.10;99.90;;;;;;2084074;28;20044;-85
2023/11/20 01:06:46;;;;;;;9.68;2.50;;;10.10;99.90;;;;;;2083688;28;20017;-85
2023/11/20 01:07:46;;;;;;;12.57;2.92;;;10.10;99.90;;;;;;2085986;28;20025;-82
2023/11/20 01:08:47;;;;;;;9.13;2.40;;;10.10;99.90;;;;;;2086559;28;20025;-86
2023/11/20 01:09:48;;;;;;;9.77;2.70;;;10.10;99.90;;;;;;2088308;28;20029;-83
2023/11/20 01:10:48;;;;;;;10.60;2.70;;;10.10;99.90;;;;;;2086518;28;20483;-85
2023/11/20 01:11:49;;;;;;;12.10;2.80;;;10.10;99.90;;;;;;2087030;28;20083;-85
2023/11/20 01:12:49;;;;;;;9.98;2.60;;;10.10;99.90;;;;;;2081550;28;20148;-85
2023/11/20 01:13:55;;;;;;;9.68;2.65;;;10.10;99.90;;;;;;2083127;28;20023;-86
2023/11/20 01:14:55;;;;;;;10.32;2.58;;;10.10;99.90;;;;;;2079612;28;20440;-84
2023/11/20 01:15:56;;;;;;;11.40;2.83;;;10.10;99.90;;;;;;2077866;28;20447;-87
2023/11/20 01:16:57;;;;;;;10.60;2.63;;;10.00;99.90;;;;;;2076785;28;20025;-85
2023/11/20 01:17:58;;;;;;;13.40;2.80;;;10.00;99.90;;;;;;2076124;28;20029;-82
2023/11/20 01:18:58;;;;;;;14.00;3.10;;;10.00;99.90;;;;;;2077899;28;20049;-84
2023/11/20 01:19:59;;;;;;;8.65;2.67;;;10.00;99.90;;;;;;2078181;28;20017;-84
2023/11/20 01:20:59;;;;;;;12.02;2.90;;;10.10;99.90;;;;;;2077969;28;20075;-84
2023/11/20 01:22:00;;;;;;;9.88;2.33;;;10.10;99.90;;;;;;2086342;28;20053;-84
2023/11/20 01:23:01;;;;;;;11.38;2.60;;;10.10;99.90;;;;;;2078172;28;20022;-85
2023/11/20 01:24:02;;;;;;;13.52;3.15;;;10.10;99.90;;;;;;2085926;28;20025;-83
2023/11/20 01:25:03;;;;;;;10.95;2.33;;;10.10;99.90;;;;;;2082063;28;20029;-81
2023/11/20 01:26:04;;;;;;;12.40;2.50;;;10.10;99.90;;;;;;2076242;28;20026;-83
2023/11/20 01:27:06;;;;;;;9.70;2.72;;;10.10;99.90;;;;;;2077697;28;20026;-83
2023/11/20 01:28:07;;;;;;;8.50;2.40;;;10.10;99.90;;;;;;2091009;28;20612;-80
2023/11/20 01:29:08;;;;;;;9.00;2.42;;;10.10;99.90;;;;;;2082329;28;20025;-83
2023/11/20 01:30:09;;;;;;;9.50;2.50;;;10.10;99.90;;;;;;2074395;28;20300;-83
2023/11/20 01:31:10;;;;;;;12.00;2.72;;;10.20;99.90;;;;;;2068381;28;20018;-83
2023/11/20 01:32:11;;;;;;;13.38;2.85;;;10.20;99.90;;;;;;2076210;28;20045;-81
2023/11/20 01:33:11;;;;;;;9.93;2.40;;;10.20;99.90;;;;;;2088379;28;20025;-84
2023/11/20 01:34:12;;;;;;;9.73;2.60;;;10.20;99.90;;;;;;2084572;28;20027;-83
2023/11/20 01:35:12;;;;;;;12.43;2.55;;;10.20;99.90;;;;;;2101364;28;20032;-81
2023/11/20 01:36:15;;;;;;;12.20;2.75;;;10.20;99.90;;;;;;2088776;28;20035;-85
2023/11/20 01:37:16;;;;;;;10.20;2.42;;;10.20;99.90;;;;;;2087572;28;20024;-82
2023/11/20 01:38:17;;;;;;;10.60;2.60;;;10.20;99.90;;;;;;2088226;28;20033;-84
2023/11/20 01:39:17;;;;;;;10.32;2.55;;;10.20;99.90;;;;;;2083327;28;20097;-82
2023/11/20 01:40:18;;;;;;;9.90;2.58;;;10.20;99.90;;;;;;2087148;28;20048;-83
2023/11/20 01:41:19;;;;;;;11.38;2.90;;;10.20;99.90;;;;;;2080850;28;20033;-83
2023/11/20 01:42:20;;;;;;;13.02;3.03;;;10.20;99.90;;;;;;2080173;28;20029;-82
2023/11/20 01:43:21;;;;;;;10.25;2.40;;;10.10;99.90;;;;;;2082669;28;20025;-82
2023/11/20 01:44:22;;;;;;;8.98;2.47;;;10.10;99.90;;;;;;2084583;28;20021;-82
2023/11/20 01:45:23;;;;;;;11.82;2.70;;;10.20;99.90;;;;;;2087471;28;20426;-82
2023/11/20 01:46:27;;;;;;;11.27;2.90;;;10.10;99.90;;;;;;2086536;28;20026;-83
2023/11/20 01:47:28;;;;;;;8.40;2.60;;;10.20;99.90;;;;;;2086354;28;20025;-83
2023/11/20 01:48:28;;;;;;;13.77;2.90;;;10.20;99.90;;;;;;2093344;28;20539;-82
2023/11/20 01:49:30;;;;;;;7.00;2.25;;;10.10;99.90;;;;;;2093508;28;20044;-83
2023/11/20 01:50:34;;;;;;;9.55;2.70;;;10.10;99.90;;;;;;2086557;28;20040;-83
2023/11/20 01:51:35;;;;;;;12.23;2.80;;;10.10;99.90;;;;;;2094198;28;20020;-86
2023/11/20 01:52:40;;;;;;;11.00;2.60;;;10.10;99.90;;;;;;2084926;28;20021;-84
2023/11/20 01:53:41;;;;;;;11.95;2.45;;;10.10;99.90;;;;;;2070390;28;20033;-86
2023/11/20 01:54:42;;;;;;;11.38;2.90;;;10.00;99.90;;;;;;2086052;28;20048;-85
2023/11/20 01:55:43;;;;;;;13.65;2.85;;;10.00;99.90;;;;;;2084549;28;20108;-80
2023/11/20 01:56:45;;;;;;;10.23;2.83;;;10.10;99.90;;;;;;2085553;28;20037;-85
2023/11/20 01:57:50;;;;;;;12.68;2.85;;;10.00;99.90;;;;;;2089006;28;20511;-86
2023/11/20 01:58:52;;;;;;;12.88;2.60;;;10.10;99.90;;;;;;2091135;28;20024;-82
2023/11/20 01:59:53;;;;;;;10.35;2.72;;;10.00;99.90;;;;;;2086657;28;20135;-85
2023/11/20 02:00:54;;;;;;;8.90;2.85;;;10.00;99.90;;;;;;2085815;28;20023;-85
2023/11/20 02:01:56;;;;;;;10.45;3.00;;;10.00;99.90;;;;;;2085589;28;20040;-83
2023/11/20 02:02:58;;;;;;;12.32;2.78;;;10.00;99.90;;;;;;2082646;28;20033;-82
2023/11/20 02:04:00;;;;;;;12.98;2.70;;;10.00;99.90;;;;;;2072394;28;20041;-81
2023/11/20 02:05:01;;;;;;;12.40;2.80;;;10.00;99.90;;;;;;2074629;28;20033;-85
2023/11/20 02:06:02;;;;;;;8.90;2.50;;;10.00;99.90;;;;;;2085148;28;20032;-85
2023/11/20 02:07:07;;;;;;;9.20;2.67;;;10.00;99.90;;;;;;2087050;28;20420;-84
2023/11/20 02:08:08;;;;;;;12.85;2.90;;;10.00;99.90;;;;;;2081105;28;20040;-84
2023/11/20 02:09:09;;;;;;;12.10;2.80;;;10.00;99.90;;;;;;2078295;28;20422;-85
2023/11/20 02:10:10;;;;;;;11.73;2.83;;;10.00;99.90;;;;;;2071129;28;20025;-85
2023/11/20 02:11:11;;;;;;;8.13;2.47;;;10.00;99.90;;;;;;2088453;28;20244;-84
2023/11/20 02:12:12;;;;;;;8.40;2.80;;;9.90;99.90;;;;;;2080370;28;20045;-85
2023/11/20 02:13:14;;;;;;;11.02;2.47;;;10.00;99.90;;;;;;2082527;28;20095;-80
2023/11/20 02:14:15;;;;;;;7.43;2.60;;;10.00;99.90;;;;;;2099464;28;20029;-82
2023/11/20 02:15:16;;;;;;;8.65;2.42;;;10.00;99.90;;;;;;2101225;28;20043;-85
2023/11/20 02:16:16;;;;;;;12.32;2.90;;;9.90;99.90;;;;;;2092033;28;20096;-84
2023/11/20 02:17:17;;;;;;;9.70;2.70;;;9.90;99.90;;;;;;2083036;28;20034;-85
2023/11/20 02:18:33;;;;;;;7.57;2.30;;;9.90;99.90;;;;;;2075207;28;20064;-82
2023/11/20 02:19:33;;;;;;;10.65;2.60;;;10.00;99.90;;;;;;2098045;28;20424;-82
2023/11/20 02:20:34;;;;;;;9.70;2.83;;;10.00;99.90;;;;;;2096261;28;20029;-85
2023/11/20 02:21:34;;;;;;;8.23;2.58;;;10.00;99.90;;;;;;2093173;28;20120;-83
2023/11/20 02:22:35;;;;;;;8.20;2.60;;;10.00;99.90;;;;;;2080697;28;20057;-84
2023/11/20 02:23:36;;;;;;;12.57;2.70;;;9.90;99.90;;;;;;2082491;28;20040;-86
2023/11/20 02:24:37;;;;;;;10.65;2.80;;;9.90;99.90;;;;;;2094784;28;20050;-84
2023/11/20 02:25:38;;;;;;;9.20;2.55;;;9.90;99.90;;;;;;2086262;28;20174;-84
2023/11/20 02:26:57;;;;;;;10.15;2.60;;;9.90;99.90;;;;;;2072543;28;20049;-83
2023/11/20 02:28:14;;;;;;;7.95;2.50;;;9.90;99.90;;;;;;2075180;28;20021;-84
2023/11/20 02:29:29;;;;;;;7.13;2.13;;;9.90;99.90;;;;;;2082458;28;20033;-83
2023/11/20 02:30:31;;;;;;;11.20;2.72;;;9.90;99.90;;;;;;2086207;28;20040;-83
2023/11/20 02:31:33;;;;;;;9.00;2.60;;;9.90;99.90;;;;;;2086833;28;20023;-80
2023/11/20 02:32:33;;;;;;;9.30;2.65;;;9.90;99.90;;;;;;2086633;28;20029;-81
2023/11/20 02:33:35;;;;;;;11.20;2.55;;;9.90;99.90;;;;;;2080275;28;20443;-81
2023/11/20 02:34:36;;;;;;;11.02;2.45;;;9.90;99.90;;;;;;2067907;28;20018;-83
2023/11/20 02:35:38;;;;;;;9.18;2.83;;;9.80;99.90;;;;;;2079694;28;20209;-83
2023/11/20 02:36:38;;;;;;;8.30;2.42;;;9.80;99.90;;;;;;2083644;28;20032;-83
2023/11/20 02:37:39;;;;;;;9.38;2.88;;;9.80;99.90;;;;;;2091181;28;20470;-81
2023/11/20 02:38:41;;;;;;;11.77;2.58;;;9.80;99.90;;;;;;2093411;28;20098;-83
2023/11/20 02:39:42;;;;;;;8.98;2.60;;;9.80;99.90;;;;;;2095035;28;20020;-81
2023/11/20 02:40:43;;;;;;;8.18;2.60;;;9.80;99.90;;;;;;2097727;28;20032;-84
2023/11/20 02:41:43;;;;;;;9.05;2.25;;;9.80;99.90;;;;;;2090947;28;20017;-85
2023/11/20 02:42:45;;;;;;;10.93;2.83;;;9.80;99.90;;;;;;2081676;28;20141;-84
2023/11/20 02:43:46;;;;;;;10.70;2.78;;;9.90;99.90;;;;;;2078564;28;20419;-84
2023/11/20 02:44:48;;;;;;;11.00;2.70;;;9.90;99.90;;;;;;2084281;28;20026;-81
2023/11/20 02:45:49;;;;;;;9.57;2.70;;;9.90;99.90;;;;;;2077764;28;20407;-83
2023/11/20 02:46:50;;;;;;;8.18;2.38;;;9.90;99.90;;;;;;2079290;28;20041;-83
2023/11/20 02:47:51;;;;;;;11.80;2.83;;;9.80;99.90;;;;;;2076513;28;20026;-82
2023/11/20 02:48:51;;;;;;;9.55;2.47;;;9.80;99.90;;;;;;2085936;28;20037;-82
2023/11/20 02:49:52;;;;;;;7.85;2.53;;;9.90;99.90;;;;;;2089220;28;20072;-81
2023/11/20 02:50:53;;;;;;;9.02;2.47;;;9.90;99.90;;;;;;2090475;28;20304;-82
2023/11/20 02:51:55;;;;;;;10.70;2.67;;;9.90;99.90;;;;;;2093288;28;20063;-83
2023/11/20 02:52:55;;;;;;;10.77;2.50;;;9.80;99.90;;;;;;2075885;28;20041;-82
2023/11/20 02:53:56;;;;;;;8.68;2.47;;;9.80;99.90;;;;;;2081750;28;20025;-83
2023/11/20 02:54:59;;;;;;;8.88;2.70;;;9.80;99.90;;;;;;2087057;28;20591;-82
2023/11/20 02:55:59;;;;;;;8.65;2.50;;;9.90;99.90;;;;;;2087766;28;20021;-84
2023/11/20 02:57:00;;;;;;;10.57;2.42;;;9.80;99.90;;;;;;2087731;28;20043;-84
2023/11/20 02:58:01;;;;;;;11.13;2.33;;;9.90;99.90;;;;;;2077163;28;20025;-83
2023/11/20 02:59:01;;;;;;;8.45;2.72;;;9.80;99.90;;;;;;2076006;28;20029;-84
2023/11/20 03:00:06;;;;;;;9.88;2.80;;;9.80;99.90;;;;;;2079692;28;20072;-82
2023/11/20 03:01:07;;;;;;;9.52;2.28;;;9.90;99.90;;;;;;2081877;28;20033;-84
2023/11/20 03:02:08;;;;;;;9.40;2.78;;;9.90;99.90;;;;;;2089508;28;20186;-83
2023/11/20 03:03:08;;;;;;;6.07;2.40;;;9.90;99.90;;;;;;2086600;28;20021;-83
2023/11/20 03:04:09;;;;;;;11.15;2.67;;;9.80;99.90;;;;;;2086386;28;20502;-82
2023/11/20 03:05:09;;;;;;;9.93;2.60;;;9.80;99.90;;;;;;2079027;28;20107;-85
2023/11/20 03:06:11;;;;;;;7.93;2.60;;;9.90;99.90;;;;;;2084371;28;20041;-83
2023/11/20 03:07:11;;;;;;;9.82;2.83;;;9.90;99.90;;;;;;2094149;28;20093;-82
2023/11/20 03:08:12;;;;;;;7.82;2.58;;;9.90;99.90;;;;;;2095490;28;20020;-81
2023/11/20 03:09:13;;;;;;;8.02;2.33;;;9.90;99.90;;;;;;2082680;28;20033;-82
2023/11/20 03:10:15;;;;;;;11.25;2.58;;;9.90;99.90;;;;;;2086395;28;20025;-84
2023/11/20 03:11:16;;;;;;;8.70;2.40;;;10.00;99.90;;;;;;2090691;28;20433;-83
2023/11/20 03:12:17;;;;;;;9.50;2.53;;;10.00;99.90;;;;;;2099486;28;20009;-82
2023/11/20 03:13:18;;;;;;;8.52;2.70;;;10.00;99.90;;;;;;2092191;28;20111;-81
2023/11/20 03:14:18;;;;;;;7.88;2.40;;;10.00;99.90;;;;;;2092496;28;20014;-83
2023/11/20 03:15:21;;;;;;;7.07;2.60;;;9.90;99.90;;;;;;2090334;28;20056;-84
2023/11/20 03:16:22;;;;;;;7.75;2.25;;;10.00;99.90;;;;;;2086981;28;20104;-84
2023/11/20 03:17:22;;;;;;;8.40;2.30;;;9.90;99.90;;;;;;2091545;28;20032;-83
2023/11/20 03:18:23;;;;;;;9.93;2.40;;;10.00;99.90;;;;;;2088912;28;20044;-82
2023/11/20 03:19:24;;;;;;;9.35;2.60;;;10.00;99.90;;;;;;2090409;28;20029;-85
2023/11/20 03:20:24;;;;;;;6.63;2.25;;;10.00;99.90;;;;;;2095829;28;20027;-83
2023/11/20 03:21:26;;;;;;;7.88;2.67;;;10.00;99.90;;;;;;2097773;28;20465;-83
2023/11/20 03:22:26;;;;;;;8.90;2.60;;;10.00;99.90;;;;;;2081194;28;20080;-85
2023/11/20 03:23:27;;;;;;;8.10;2.30;;;10.00;99.90;;;;;;2080574;28;20294;-82
2023/11/20 03:24:27;;;;;;;11.15;2.65;;;10.00;99.90;;;;;;2080191;28;20045;-82
2023/11/20 03:25:28;;;;;;;10.98;2.83;;;10.00;99.90;;;;;;2079873;28;20543;-83
2023/11/20 03:26:28;;;;;;;8.70;2.40;;;10.00;99.90;;;;;;2074776;28;20026;-84
2023/11/20 03:27:29;;;;;;;8.70;2.50;;;10.00;99.90;;;;;;2075676;28;20526;-84
2023/11/20 03:28:30;;;;;;;7.95;2.38;;;10.00;99.90;;;;;;2070457;28;20025;-84
2023/11/20 03:29:31;;;;;;;7.53;2.25;;;10.00;99.90;;;;;;2087422;28;20017;-81
2023/11/20 03:30:34;;;;;;;7.05;2.20;;;10.00;99.90;;;;;;2091412;28;20033;-84
2023/11/20 03:31:36;;;;;;;9.65;2.22;;;10.10;99.90;;;;;;2087803;28;20018;-82
2023/11/20 03:32:37;;;;;;;8.93;2.28;;;10.10;99.90;;;;;;2084735;28;20942;-82
2023/11/20 03:33:37;;;;;;;7.82;2.60;;;10.10;99.90;;;;;;2087823;28;20057;-84
2023/11/20 03:34:38;;;;;;;7.80;2.58;;;10.10;99.90;;;;;;2078838;28;20017;-85
2023/11/20 03:35:39;;;;;;;7.18;2.50;;;10.10;99.90;;;;;;2079284;28;20084;-83
2023/11/20 03:36:40;;;;;;;10.05;2.40;;;10.10;99.90;;;;;;2096787;28;20047;-85
2023/11/20 03:37:40;;;;;;;9.18;2.50;;;10.10;99.90;;;;;;2076211;28;20570;-83
2023/11/20 03:38:42;;;;;;;8.13;2.53;;;10.10;99.90;;;;;;2073158;28;20045;-84
2023/11/20 03:39:42;;;;;;;14.45;2.78;;;10.10;99.90;;;;;;2079410;28;20075;-85
2023/11/20 03:40:44;;;;;;;12.13;3.03;;;10.00;99.90;;;;;;2084678;28;20030;-84
2023/11/20 03:41:45;;;;;;;9.45;2.90;;;10.00;99.90;;;;;;2080620;28;20032;-84
2023/11/20 03:42:47;;;;;;;8.20;2.60;;;10.00;99.90;;;;;;2081536;28;20068;-82
2023/11/20 03:43:49;;;;;;;7.47;2.38;;;10.00;99.90;;;;;;2090273;28;20033;-82
2023/11/20 03:44:50;;;;;;;7.55;2.50;;;10.00;99.90;;;;;;2088939;28;20021;-83
2023/11/20 03:45:51;;;;;;;7.78;2.40;;;10.00;99.90;;;;;;2081314;28;20531;-86
2023/11/20 03:46:51;;;;;;;13.13;2.70;;;10.00;99.90;;;;;;2088231;28;20029;-81
2023/11/20 03:47:52;;;;;;;8.20;2.55;;;10.00;99.90;;;;;;2083899;28;20037;-83
2023/11/20 03:48:52;;;;;;;9.13;2.42;;;9.90;99.90;;;;;;2077345;28;20057;-82
2023/11/20 03:49:54;;;;;;;8.85;2.65;;;10.00;99.90;;;;;;2088177;28;20045;-83
2023/11/20 03:50:54;;;;;;;10.80;2.70;;;10.00;99.90;;;;;;2099189;28;20020;-85
2023/11/20 03:51:55;;;;;;;10.35;2.58;;;9.90;99.90;;;;;;2092421;28;20013;-85
2023/11/20 03:52:57;;;;;;;10.95;2.80;;;9.90;99.90;;;;;;2087020;28;20121;-82
2023/11/20 03:53:58;;;;;;;8.48;2.70;;;10.00;99.90;;;;;;2094769;28;20080;-85
2023/11/20 03:54:58;;;;;;;11.68;2.45;;;9.90;99.90;;;;;;2084390;28;20041;-82
2023/11/20 03:55:59;;;;;;;7.60;2.40;;;9.90;99.90;;;;;;2089456;28;20048;-84
2023/11/20 03:56:59;;;;;;;11.55;2.53;;;10.00;99.90;;;;;;2086843;28;20143;-83
2023/11/20 03:58:00;;;;;;;7.03;2.75;;;9.90;99.90;;;;;;2087125;28;20025;-85
2023/11/20 03:59:01;;;;;;;10.90;2.88;;;10.00;99.90;;;;;;2093072;28;20083;-84
2023/11/20 04:00:01;;;;;;;7.88;2.70;;;10.00;99.90;;;;;;2088507;28;20028;-83
2023/11/20 04:01:05;;;;;;;10.00;2.50;;;10.00;99.90;;;;;;2087274;28;20029;-85
2023/11/20 04:02:08;;;;;;;9.43;2.78;;;10.00;99.90;;;;;;2088365;28;20069;-83
2023/11/20 04:03:09;;;;;;;7.45;2.45;;;10.10;99.90;;;;;;2087350;28;20029;-82
2023/11/20 04:04:09;;;;;;;7.07;2.63;;;10.00;99.90;;;;;;2094330;28;20561;-83
2023/11/20 04:05:10;;;;;;;9.65;2.60;;;10.00;99.90;;;;;;2081833;28;20041;-85
2023/11/20 04:06:11;;;;;;;8.27;2.33;;;10.00;99.90;;;;;;2087651;28;20063;-82
2023/11/20 04:07:14;;;;;;;13.48;2.88;;;10.00;99.90;;;;;;2084778;28;20017;-84
2023/11/20 04:08:14;;;;;;;8.07;2.60;;;10.00;99.90;;;;;;2076139;28;20021;-82
2023/11/20 04:09:16;;;;;;;8.88;2.40;;;10.00;99.90;;;;;;2086464;28;20465;-85
2023/11/20 04:10:16;;;;;;;6.18;2.30;;;9.90;99.90;;;;;;2078477;28;20470;-85
2023/11/20 04:11:17;;;;;;;9.48;2.75;;;9.90;99.90;;;;;;2078377;28;20134;-84
2023/11/20 04:12:18;;;;;;;8.90;2.97;;;10.00;99.90;;;;;;2087062;28;20092;-83
2023/11/20 04:13:19;;;;;;;7.75;2.38;;;10.00;99.90;;;;;;2078716;28;20037;-83
2023/11/20 04:14:19;;;;;;;8.48;2.60;;;10.00;99.90;;;;;;2082928;28;20029;-86
2023/11/20 04:15:20;;;;;;;9.20;2.40;;;10.00;99.90;;;;;;2081987;28;20021;-82
2023/11/20 04:16:21;;;;;;;8.50;2.70;;;10.00;99.90;;;;;;2083429;28;20074;-84
2023/11/20 04:17:21;;;;;;;8.60;2.65;;;10.00;99.90;;;;;;2083288;28;20479;-81
2023/11/20 04:18:22;;;;;;;8.77;2.50;;;10.00;99.90;;;;;;2087108;28;20067;-85
2023/11/20 04:19:22;;;;;;;9.40;2.58;;;10.00;99.90;;;;;;2091769;28;20335;-84
2023/11/20 04:20:23;;;;;;;9.88;2.25;;;10.00;99.90;;;;;;2085824;28;20040;-84
2023/11/20 04:21:23;;;;;;;7.00;2.60;;;10.00;99.90;;;;;;2077863;28;20029;-82
2023/11/20 04:22:24;;;;;;;12.80;2.75;;;10.00;99.90;;;;;;2078072;28;20032;-83
2023/11/20 04:23:25;;;;;;;9.98;2.63;;;10.10;99.90;;;;;;2078612;28;20529;-83
2023/11/20 04:24:25;;;;;;;7.97;2.30;;;10.00;99.90;;;;;;2086760;28;20025;-85
2023/11/20 04:25:26;;;;;;;11.05;2.80;;;10.10;99.90;;;;;;2085283;28;20029;-84
2023/11/20 04:26:27;;;;;;;8.75;2.58;;;10.10;99.90;;;;;;2087741;28;20051;-84
2023/11/20 04:27:27;;;;;;;8.68;2.60;;;10.10;99.90;;;;;;2091724;28;20051;-82
2023/11/20 04:28:30;;;;;;;8.50;2.20;;;10.10;99.90;;;;;;2092666;28;20211;-84
2023/11/20 04:29:31;;;;;;;9.70;2.78;;;10.10;99.90;;;;;;2084350;28;20025;-84
2023/11/20 04:30:32;;;;;;;9.00;2.33;;;10.20;99.90;;;;;;2085316;28;20037;-81
2023/11/20 04:31:32;;;;;;;9.07;2.38;;;10.20;99.90;;;;;;2079423;28;20055;-83
2023/11/20 04:32:33;;;;;;;7.68;2.30;;;10.20;99.90;;;;;;2086572;28;20024;-82
2023/11/20 04:33:33;;;;;;;6.43;1.95;;;10.30;99.90;;;;;;2088314;28;20066;-81
2023/11/20 04:34:34;;;;;;;8.77;2.33;;;10.30;99.90;;;;;;2091416;28;20025;-81
2023/11/20 04:35:35;;;;;;;10.07;2.40;;;10.30;99.90;;;;;;2096316;28;20032;-85
2023/11/20 04:36:35;;;;;;;7.63;2.25;;;10.30;99.90;;;;;;2088004;28;20047;-84
2023/11/20 04:37:36;;;;;;;7.63;2.25;;;10.30;99.90;;;;;;2082289;28;20132;-84
2023/11/20 04:38:37;;;;;;;6.45;2.40;;;10.20;99.90;;;;;;2087810;28;20106;-83
2023/11/20 04:39:38;;;;;;;9.32;2.33;;;10.30;99.90;;;;;;2086922;28;20443;-83
2023/11/20 04:40:38;;;;;;;9.63;2.47;;;10.30;99.90;;;;;;2084971;28;20131;-84
2023/11/20 04:41:39;;;;;;;7.43;2.13;;;10.30;99.90;;;;;;2085995;28;20021;-84
2023/11/20 04:42:40;;;;;;;8.30;2.40;;;10.30;99.90;;;;;;2079497;28;20268;-85
2023/11/20 04:43:40;;;;;;;8.38;2.72;;;10.30;99.90;;;;;;2092681;28;20509;-83
2023/11/20 04:44:41;;;;;;;8.55;2.33;;;10.30;99.90;;;;;;2093575;28;20028;-84
2023/11/20 04:45:42;;;;;;;9.15;2.40;;;10.30;99.90;;;;;;2087152;28;20092;-81
2023/11/20 04:46:42;;;;;;;8.10;2.13;;;10.30;99.90;;;;;;2079979;28;20027;-84
2023/11/20 04:47:43;;;;;;;10.00;2.47;;;10.30;99.90;;;;;;2090448;28;20033;-84
2023/11/20 04:48:44;;;;;;;9.25;2.70;;;10.30;99.90;;;;;;2073902;28;20018;-85
2023/11/20 04:49:44;;;;;;;9.23;2.67;;;10.30;99.90;;;;;;2082834;28;20049;-83
2023/11/20 04:50:45;;;;;;;9.07;2.35;;;10.30;99.90;;;;;;2075844;28;20052;-85
2023/11/20 04:51:46;;;;;;;8.32;2.33;;;10.30;99.90;;;;;;2078747;28;20092;-84
2023/11/20 04:52:47;;;;;;;7.47;2.38;;;10.30;99.90;;;;;;2086400;28;20060;-82
2023/11/20 04:53:48;;;;;;;13.80;2.90;;;10.30;99.90;;;;;;2080150;28;20109;-85
2023/11/20 04:54:49;;;;;;;8.57;2.58;;;10.30;99.90;;;;;;2086659;28;20029;-83
2023/11/20 04:55:49;;;;;;;10.52;2.55;;;10.40;99.90;;;;;;2079297;28;20103;-81
2023/11/20 04:56:50;;;;;;;8.77;2.60;;;10.40;99.90;;;;;;2094742;28;20066;-84
2023/11/20 04:57:51;;;;;;;7.72;2.40;;;10.40;99.90;;;;;;2086270;28;20083;-82
2023/11/20 04:58:52;;;;;;;9.88;2.38;;;10.40;99.90;;;;;;2082894;28;20064;-83
2023/11/20 04:59:52;;;;;;;9.43;2.70;;;10.40;99.90;;;;;;2086917;28;20033;-82
2023/11/20 05:00:53;;;;;;;10.90;2.40;;;10.40;99.90;;;;;;2086960;28;20487;-83
2023/11/20 05:01:53;;;;;;;5.97;2.22;;;10.40;99.90;;;;;;2093573;28;20025;-82
2023/11/20 05:02:54;;;;;;;7.20;2.20;;;10.40;99.90;;;;;;2093778;28;20036;-83
2023/11/20 05:03:55;;;;;;;7.30;2.70;;;10.40;99.90;;;;;;2081439;28;20548;-82
2023/11/20 05:04:56;;;;;;;9.77;2.60;;;10.30;99.90;;;;;;2086058;28;20025;-81
2023/11/20 05:05:57;;;;;;;9.82;2.40;;;10.40;99.90;;;;;;2081224;28;20057;-80
2023/11/20 05:06:58;;;;;;;5.53;2.30;;;10.40;99.90;;;;;;2078973;28;20056;-82
2023/11/20 05:07:59;;;;;;;7.95;2.50;;;10.40;99.90;;;;;;2074485;28;20097;-81
2023/11/20 05:09:00;;;;;;;8.25;2.47;;;10.40;99.90;;;;;;2073291;28;20656;-84
2023/11/20 05:10:01;;;;;;;8.63;2.35;;;10.40;99.90;;;;;;2084985;28;20029;-83
2023/11/20 05:11:02;;;;;;;10.00;2.45;;;10.40;99.90;;;;;;2080255;28;20036;-83
2023/11/20 05:12:03;;;;;;;20.95;7.90;;;10.40;99.90;;;;;;2085422;28;20028;-80
2023/11/20 05:13:04;;;;;;;8.48;2.67;;;10.40;99.90;;;;;;2094421;28;20067;-84
2023/11/20 05:14:05;;;;;;;10.93;2.45;;;10.40;99.90;;;;;;2095362;28;20001;-82
2023/11/20 05:15:06;;;;;;;10.65;2.40;;;10.30;99.90;;;;;;2093771;28;20029;-83
2023/11/20 05:16:07;;;;;;;7.07;2.40;;;10.40;99.90;;;;;;2085733;28;20029;-82
2023/11/20 05:17:07;;;;;;;11.68;2.67;;;10.40;99.90;;;;;;2076165;28;20055;-81